Flugplatz Hünsborn

Für EDKH sind keine METAR/TAF Berichte vorhanden.
Es werden die Flugwettermeldungen vom Flugplatz Siegerland in 27 km Entfernung angezeigt.

Bericht für EDGS

vom 23.05. um 17:50 UTC

Wind 6 kt aus 270°

Sichtweite 10 km oder mehr

aufgebrochene Bewölkung in 4900 ft

Temperatur 17.0°C

Taupunkt 6.0°C

Luftfeuchtigkeit 48%

Luftdruck 1017 hPa

EDGS 231750Z 27006KT 9999 BKN049 17/06 Q1017

Prognose für EDGS

vom 23.05. um 17:00 UTC

Zwischen 18:00 und 20:00 UTC übergehend zu

variable Windrichtung mit 3 kt

Sichtweite 10 km oder mehr

keine signifikanten Wettererscheinungen

keine Wolken


Zwischen 18:00 UTC und 03:00 UTC

Wind 7 kt aus 250°

Sichtweite 10 km oder mehr

keine signifikanten Wettererscheinungen

keine Wolken

TAF EDGS 231700Z 2318/2403 25007KT CAVOK BECMG 2318/2320 VRB03KT
Impressum